createdAt,value
2023-03-21T00:00:43.176Z,20.85
2023-03-21T00:03:10.251Z,15.65
2023-03-21T00:05:42.126Z,17.35
2023-03-21T00:08:08.985Z,18.50
2023-03-21T00:10:41.656Z,17.83
2023-03-21T00:13:13.136Z,21.05
2023-03-21T00:16:03.439Z,21.52
2023-03-21T00:18:32.417Z,22.05
2023-03-21T00:21:29.210Z,16.67
2023-03-21T00:23:48.243Z,19.63
2023-03-21T00:26:15.385Z,15.70
2023-03-21T00:28:43.684Z,18.60
2023-03-21T00:31:11.039Z,17.23
2023-03-21T00:33:39.046Z,13.43
2023-03-21T00:36:07.182Z,19.30
2023-03-21T00:38:34.803Z,15.23
2023-03-21T00:41:20.979Z,13.32
2023-03-21T00:43:55.501Z,17.17
2023-03-21T00:46:23.521Z,18.20
2023-03-21T00:48:52.126Z,13.68
2023-03-21T00:51:26.342Z,17.85
2023-03-21T00:53:58.063Z,16.42
2023-03-21T00:56:24.868Z,15.55
2023-03-21T00:58:51.467Z,15.77
2023-03-21T01:01:18.654Z,15.68
2023-03-21T01:03:50.636Z,14.77
2023-03-21T01:06:19.436Z,17.88
2023-03-21T01:08:52.592Z,16.30
2023-03-21T01:11:23.620Z,15.37
2023-03-21T01:13:56.267Z,16.23
2023-03-21T01:16:28.930Z,18.27
2023-03-21T01:18:56.142Z,16.35
2023-03-21T01:21:22.905Z,19.10
2023-03-21T01:23:49.567Z,17.27
2023-03-21T01:26:16.771Z,20.77
2023-03-21T01:28:44.755Z,23.55
2023-03-21T01:31:13.704Z,19.08
2023-03-21T01:33:41.244Z,17.60
2023-03-21T01:36:13.132Z,23.87
2023-03-21T01:38:41.645Z,22.58
2023-03-21T01:41:42.851Z,21.23
2023-03-21T01:44:16.209Z,23.30
2023-03-21T01:46:53.940Z,23.85
2023-03-21T01:49:34.187Z,24.10
2023-03-21T01:52:13.193Z,24.92
2023-03-21T01:54:43.540Z,27.17
2023-03-21T01:57:15.836Z,27.10
2023-03-21T01:59:51.301Z,24.45
2023-03-21T02:02:29.095Z,28.13
2023-03-21T02:04:58.286Z,34.05
2023-03-21T02:07:31.532Z,29.98
2023-03-21T02:09:59.260Z,33.17
2023-03-21T02:12:27.540Z,29.42
2023-03-21T02:14:55.528Z,26.57
2023-03-21T02:17:32.462Z,29.92
2023-03-21T02:20:25.189Z,29.40
2023-03-21T02:23:07.445Z,26.75
2023-03-21T02:25:56.598Z,28.20
2023-03-21T02:28:29.092Z,28.53
2023-03-21T02:31:10.842Z,32.80
2023-03-21T02:34:24.248Z,31.25
2023-03-21T02:37:15.255Z,28.52
2023-03-21T02:39:56.056Z,29.98
2023-03-21T02:42:28.917Z,27.47
2023-03-21T02:45:20.692Z,38.95
2023-03-21T02:47:59.889Z,29.08
2023-03-21T02:50:26.451Z,40.67
2023-03-21T02:52:55.042Z,35.97
2023-03-21T02:55:27.055Z,36.57
2023-03-21T02:57:56.518Z,33.33
2023-03-21T03:00:27.565Z,32.10
2023-03-21T03:03:07.894Z,39.00
2023-03-21T03:05:41.808Z,31.83
2023-03-21T03:08:08.632Z,31.60
2023-03-21T03:10:56.751Z,31.40
2023-03-21T03:13:48.025Z,31.63
2023-03-21T03:16:36.719Z,31.48
2023-03-21T03:19:10.216Z,30.25
2023-03-21T03:21:49.727Z,30.47
2023-03-21T03:24:29.237Z,28.98
2023-03-21T03:27:01.769Z,22.88
2023-03-21T03:29:31.132Z,29.05
2023-03-21T03:32:12.065Z,29.63
2023-03-21T03:34:44.163Z,29.43
2023-03-21T03:37:14.622Z,27.52
2023-03-21T03:39:50.268Z,23.58
2023-03-21T03:42:28.494Z,27.00
2023-03-21T03:44:56.439Z,18.83
2023-03-21T03:47:50.698Z,24.83
2023-03-21T03:50:34.289Z,23.90
2023-03-21T03:53:23.581Z,26.17
2023-03-21T03:55:51.624Z,26.27
2023-03-21T03:58:26.020Z,25.98
2023-03-21T04:00:58.306Z,21.33
2023-03-21T04:03:24.960Z,25.20
2023-03-21T04:05:51.706Z,36.45
2023-03-21T04:08:18.366Z,31.88
2023-03-21T04:10:48.246Z,33.45
2023-03-21T04:13:15.381Z,30.60
2023-03-21T04:15:43.483Z,31.95
2023-03-21T04:18:10.101Z,33.67
2023-03-21T04:20:37.573Z,37.38
2023-03-21T04:23:05.977Z,33.28
2023-03-21T04:25:42.282Z,41.17
2023-03-21T04:28:14.392Z,34.22
2023-03-21T04:30:44.971Z,41.78
2023-03-21T04:33:16.046Z,39.83
2023-03-21T04:35:42.718Z,35.65
2023-03-21T04:38:09.303Z,44.13
2023-03-21T04:40:36.123Z,41.67
2023-03-21T04:43:02.882Z,37.28
2023-03-21T04:45:29.532Z,37.63
2023-03-21T04:47:57.326Z,41.05
2023-03-21T04:50:23.961Z,42.13
2023-03-21T04:52:50.556Z,40.95
2023-03-21T04:55:17.399Z,40.15
2023-03-21T04:57:43.981Z,41.78
2023-03-21T05:00:11.188Z,38.65
2023-03-21T05:02:38.856Z,35.63
2023-03-21T05:05:06.712Z,32.33
2023-03-21T05:07:33.288Z,35.50
2023-03-21T05:10:01.942Z,29.42
2023-03-21T05:12:29.121Z,31.63
2023-03-21T05:14:56.026Z,33.63
2023-03-21T05:17:28.320Z,34.75
2023-03-21T05:19:56.503Z,33.33
2023-03-21T05:22:26.679Z,32.72
2023-03-21T05:24:55.197Z,27.42
2023-03-21T05:27:34.944Z,31.97
2023-03-21T05:30:04.326Z,33.78
2023-03-21T05:32:31.146Z,32.25
2023-03-21T05:34:57.828Z,28.25
2023-03-21T05:37:24.810Z,35.63
2023-03-21T05:39:51.519Z,26.87
2023-03-21T05:42:18.664Z,32.42
2023-03-21T05:44:46.107Z,30.23
2023-03-21T05:47:14.163Z,29.35
2023-03-21T05:49:40.829Z,37.20
2023-03-21T05:52:07.699Z,38.53
2023-03-21T05:54:34.377Z,24.98
2023-03-21T05:57:00.954Z,34.22
2023-03-21T05:59:27.623Z,31.20
2023-03-21T06:01:54.268Z,27.73
2023-03-21T06:04:21.009Z,32.57
2023-03-21T06:06:47.654Z,39.58
2023-03-21T06:09:14.331Z,32.78
2023-03-21T06:11:46.236Z,35.03
2023-03-21T06:14:13.077Z,27.02
2023-03-21T06:16:39.814Z,35.33
2023-03-21T06:19:06.514Z,28.77
2023-03-21T06:21:33.112Z,37.83
2023-03-21T06:23:59.842Z,33.63
2023-03-21T06:26:26.556Z,36.90
2023-03-21T06:28:53.578Z,27.37
2023-03-21T06:31:22.494Z,27.02
2023-03-21T06:33:49.922Z,25.45
2023-03-21T06:36:16.559Z,35.65
2023-03-21T06:38:43.461Z,26.65
2023-03-21T06:41:10.683Z,30.63
2023-03-21T06:43:37.266Z,38.38
2023-03-21T06:46:04.259Z,29.23
2023-03-21T06:48:31.221Z,31.67
2023-03-21T06:50:57.907Z,27.42
2023-03-21T06:53:27.474Z,28.90
2023-03-21T06:55:54.724Z,30.15
2023-03-21T06:58:22.969Z,27.08
2023-03-21T07:00:50.335Z,31.75
2023-03-21T07:03:17.082Z,30.17
2023-03-21T07:05:43.750Z,29.50
2023-03-21T07:08:12.247Z,24.65
2023-03-21T07:10:40.289Z,30.08
2023-03-21T07:13:07.414Z,31.52
2023-03-21T07:15:38.135Z,24.58
2023-03-21T07:18:06.441Z,30.37
2023-03-21T07:20:33.314Z,28.58
2023-03-21T07:23:00.775Z,21.90
2023-03-21T07:25:28.136Z,22.52
2023-03-21T07:27:54.779Z,28.75
2023-03-21T07:30:21.642Z,23.53
2023-03-21T07:32:48.757Z,22.55
2023-03-21T07:35:17.578Z,24.83
2023-03-21T07:37:44.474Z,26.88
2023-03-21T07:40:12.317Z,23.40
2023-03-21T07:42:42.684Z,21.73
2023-03-21T07:45:10.277Z,21.05
2023-03-21T07:47:37.069Z,20.70
2023-03-21T07:50:06.184Z,24.98
2023-03-21T07:52:33.043Z,21.52
2023-03-21T07:54:59.733Z,22.90
2023-03-21T07:57:26.521Z,19.48
2023-03-21T07:59:53.212Z,24.05
2023-03-21T08:02:20.035Z,27.38
2023-03-21T08:04:47.266Z,25.83
2023-03-21T08:07:14.176Z,23.20
2023-03-21T08:09:41.068Z,24.38
2023-03-21T08:12:10.583Z,23.95
2023-03-21T08:14:37.575Z,23.73
2023-03-21T08:17:05.682Z,24.83
2023-03-21T08:19:32.852Z,22.97
2023-03-21T08:21:59.796Z,28.23
2023-03-21T08:24:27.344Z,19.25
2023-03-21T08:26:54.653Z,21.85
2023-03-21T08:29:22.440Z,23.73
2023-03-21T08:31:49.361Z,22.33
2023-03-21T08:34:19.566Z,21.83
2023-03-21T08:36:47.160Z,25.20
2023-03-21T08:39:17.631Z,17.60
2023-03-21T08:41:44.563Z,21.73
2023-03-21T08:44:11.317Z,23.07
2023-03-21T08:46:38.092Z,20.27
2023-03-21T08:49:04.875Z,21.83
2023-03-21T08:51:31.651Z,22.75
2023-03-21T08:53:58.301Z,16.10
2023-03-21T08:56:25.252Z,22.63
2023-03-21T08:58:51.945Z,21.67
2023-03-21T09:04:06.435Z,25.13
2023-03-21T09:09:29.170Z,19.80
2023-03-21T09:11:59.224Z,13.77
2023-03-21T09:14:29.116Z,14.75
2023-03-21T09:16:56.422Z,14.20
2023-03-21T09:19:24.428Z,17.63
2023-03-21T09:21:53.362Z,16.13
2023-03-21T09:24:20.618Z,17.85
2023-03-21T09:26:53.025Z,17.17
2023-03-21T09:29:25.743Z,17.67
2023-03-21T09:31:53.524Z,14.25
2023-03-21T09:34:30.941Z,22.90
2023-03-21T09:36:58.175Z,16.38
2023-03-21T09:39:26.281Z,20.45
2023-03-21T09:42:15.405Z,16.92
2023-03-21T09:45:22.899Z,18.85
2023-03-21T09:47:54.849Z,17.73
2023-03-21T09:51:00.493Z,14.57
2023-03-21T09:53:51.922Z,15.57
2023-03-21T09:56:26.295Z,15.52
2023-03-21T09:58:59.943Z,17.05
2023-03-21T10:01:41.844Z,13.90
2023-03-21T10:04:21.264Z,15.05
2023-03-21T10:06:58.515Z,16.13
2023-03-21T10:09:57.554Z,19.17
2023-03-21T10:12:31.812Z,15.90
2023-03-21T10:15:01.667Z,12.80
2023-03-21T10:17:55.642Z,14.10
2023-03-21T10:20:37.470Z,17.05
2023-03-21T10:23:10.885Z,16.15
2023-03-21T10:25:50.761Z,16.95
2023-03-21T10:28:31.087Z,16.57
2023-03-21T10:31:08.615Z,14.98
2023-03-21T10:33:43.347Z,14.65
2023-03-21T10:36:25.771Z,18.67
2023-03-21T10:39:15.757Z,14.63
2023-03-21T10:44:31.106Z,12.57
2023-03-21T10:47:03.636Z,13.95
2023-03-21T10:49:40.170Z,15.00
2023-03-21T10:52:13.471Z,12.48
2023-03-21T10:54:40.788Z,16.03
2023-03-21T10:57:18.184Z,12.18
2023-03-21T10:59:53.726Z,15.65
2023-03-21T11:02:26.291Z,16.10
2023-03-21T11:04:54.766Z,13.68
2023-03-21T11:07:23.559Z,17.43
2023-03-21T11:10:01.637Z,13.95
2023-03-21T11:12:35.667Z,18.77
2023-03-21T11:15:37.835Z,17.50
2023-03-21T11:18:19.989Z,14.45
2023-03-21T11:21:11.674Z,14.77
2023-03-21T11:23:46.148Z,15.45
2023-03-21T11:26:24.472Z,13.15
2023-03-21T11:28:51.933Z,12.75
2023-03-21T11:31:18.995Z,10.82
2023-03-21T11:33:53.686Z,14.13
2023-03-21T11:36:20.804Z,16.52
2023-03-21T11:38:51.110Z,14.18
2023-03-21T11:41:32.635Z,14.75
2023-03-21T11:44:00.580Z,10.90
2023-03-21T11:46:31.891Z,15.90
2023-03-21T11:49:00.450Z,15.27
2023-03-21T11:51:51.665Z,15.55
2023-03-21T11:54:21.786Z,13.88
2023-03-21T11:57:07.699Z,11.95
2023-03-21T11:59:54.265Z,14.37
2023-03-21T12:02:36.177Z,12.70
2023-03-21T12:05:20.050Z,14.80
2023-03-21T12:08:06.916Z,12.55
2023-03-21T12:10:53.664Z,16.55
2023-03-21T12:13:41.425Z,16.33
2023-03-21T12:16:24.892Z,17.27
2023-03-21T12:19:28.006Z,13.88
2023-03-21T12:22:37.812Z,12.98
2023-03-21T12:25:16.914Z,13.93
2023-03-21T12:28:06.578Z,13.13
2023-03-21T12:31:02.056Z,13.82
2023-03-21T12:33:56.670Z,15.60
2023-03-21T12:36:45.197Z,13.82
2023-03-21T12:39:34.856Z,13.07
2023-03-21T12:42:28.651Z,13.67
2023-03-21T12:45:06.065Z,13.70
2023-03-21T12:47:35.504Z,14.57
2023-03-21T12:50:06.717Z,16.52
2023-03-21T12:52:41.885Z,11.95
2023-03-21T12:55:24.801Z,14.57
2023-03-21T12:58:01.795Z,16.00
2023-03-21T13:01:01.270Z,15.20
2023-03-21T13:03:40.134Z,15.25
2023-03-21T13:06:09.325Z,17.45
2023-03-21T13:08:46.428Z,15.63
2023-03-21T13:11:17.657Z,16.70
2023-03-21T13:13:52.770Z,17.05
2023-03-21T13:16:31.009Z,12.85
2023-03-21T13:19:06.265Z,16.13
2023-03-21T13:21:52.371Z,16.83
2023-03-21T13:24:27.962Z,17.50
2023-03-21T13:27:02.400Z,12.85
2023-03-21T13:29:44.153Z,11.00
2023-03-21T13:32:21.720Z,12.23
2023-03-21T13:34:56.071Z,13.00
2023-03-21T13:37:25.139Z,9.90
2023-03-21T13:39:51.988Z,14.77
2023-03-21T13:42:23.551Z,11.05
2023-03-21T13:44:57.792Z,12.45
2023-03-21T13:48:01.937Z,12.77
2023-03-21T13:50:52.787Z,11.85
2023-03-21T13:53:22.432Z,14.05
2023-03-21T13:55:59.898Z,10.30
2023-03-21T13:58:39.124Z,11.77
2023-03-21T14:01:13.969Z,15.30
2023-03-21T14:03:41.892Z,14.32
2023-03-21T14:06:10.728Z,10.98
2023-03-21T14:08:40.934Z,14.50
2023-03-21T14:11:11.781Z,13.82
2023-03-21T14:13:50.843Z,11.30
2023-03-21T14:16:20.230Z,20.73
2023-03-21T14:18:55.034Z,15.75
2023-03-21T14:21:34.080Z,13.48
2023-03-21T14:24:12.556Z,13.10
2023-03-21T14:26:43.214Z,15.87
2023-03-21T14:29:26.278Z,11.48
2023-03-21T14:31:55.451Z,13.00
2023-03-21T14:34:23.369Z,16.45
2023-03-21T14:36:57.554Z,16.48
2023-03-21T14:39:30.692Z,13.97
2023-03-21T14:42:04.719Z,16.45
2023-03-21T14:44:44.128Z,12.73
2023-03-21T14:47:24.356Z,14.80
2023-03-21T14:49:51.748Z,13.32
2023-03-21T14:52:24.871Z,11.87
2023-03-21T14:54:52.569Z,15.35
2023-03-21T14:57:23.125Z,13.85
2023-03-21T14:59:54.010Z,11.85
2023-03-21T15:02:25.495Z,9.93
2023-03-21T15:04:58.696Z,13.30
2023-03-21T15:07:29.520Z,15.55
2023-03-21T15:09:58.112Z,15.30
2023-03-21T15:12:24.859Z,11.50
2023-03-21T15:14:52.234Z,12.65
2023-03-21T15:17:19.506Z,10.83
2023-03-21T15:19:46.514Z,10.60
2023-03-21T15:22:28.154Z,10.68
2023-03-21T15:25:01.786Z,13.50
2023-03-21T15:27:31.449Z,11.80
2023-03-21T15:29:58.276Z,16.43
2023-03-21T15:32:28.715Z,10.65
2023-03-21T15:35:04.434Z,14.45
2023-03-21T15:37:36.675Z,16.63
2023-03-21T15:40:28.273Z,12.93
2023-03-21T15:43:18.116Z,12.23
2023-03-21T15:45:56.409Z,13.95
2023-03-21T15:48:29.327Z,13.82
2023-03-21T15:51:03.439Z,16.55
2023-03-21T15:53:33.575Z,15.35
2023-03-21T15:56:05.937Z,17.07
2023-03-21T15:58:41.260Z,11.40
2023-03-21T16:01:26.321Z,13.57
2023-03-21T16:04:02.039Z,8.98
2023-03-21T16:06:36.827Z,16.42
2023-03-21T16:09:08.791Z,15.63
2023-03-21T16:11:40.106Z,11.77
2023-03-21T16:14:07.805Z,14.82
2023-03-21T16:16:34.775Z,14.02
2023-03-21T16:19:02.874Z,14.50
2023-03-21T16:21:31.193Z,13.43
2023-03-21T16:24:00.794Z,15.63
2023-03-21T16:26:31.365Z,16.98
2023-03-21T16:28:58.420Z,16.70
2023-03-21T16:31:27.514Z,16.85
2023-03-21T16:33:54.229Z,15.50
2023-03-21T16:36:25.589Z,14.18
2023-03-21T16:38:53.635Z,16.13
2023-03-21T16:41:21.705Z,17.77
2023-03-21T16:43:48.656Z,14.55
2023-03-21T16:46:17.763Z,13.73
2023-03-21T16:48:48.896Z,16.52
2023-03-21T16:51:21.612Z,16.27
2023-03-21T16:53:49.441Z,13.65
2023-03-21T16:56:33.516Z,16.95
2023-03-21T16:59:00.232Z,13.47
2023-03-21T17:01:27.574Z,9.77
2023-03-21T17:03:54.517Z,13.90
2023-03-21T17:06:24.393Z,9.25
2023-03-21T17:08:52.523Z,9.82
2023-03-21T17:11:21.664Z,10.00
2023-03-21T17:13:53.024Z,11.73
2023-03-21T17:16:26.842Z,12.50
2023-03-21T17:18:54.577Z,9.30
2023-03-21T17:21:23.439Z,12.82
2023-03-21T17:23:51.058Z,6.97
2023-03-21T17:26:28.957Z,9.13
2023-03-21T17:28:59.801Z,11.23
2023-03-21T17:31:27.921Z,9.95
2023-03-21T17:33:54.600Z,11.23
2023-03-21T17:36:35.515Z,14.67
2023-03-21T17:39:04.401Z,13.45
2023-03-21T17:41:31.088Z,16.13
2023-03-21T17:43:57.707Z,11.23
2023-03-21T17:46:27.721Z,12.38
2023-03-21T17:48:54.728Z,10.73
2023-03-21T17:51:23.599Z,11.15
2023-03-21T17:53:51.002Z,12.27
2023-03-21T17:56:30.777Z,11.90
2023-03-21T17:58:59.999Z,13.20
2023-03-21T18:01:27.019Z,14.03
2023-03-21T18:03:56.468Z,11.52
2023-03-21T18:06:25.940Z,12.18
2023-03-21T18:08:53.949Z,10.07
2023-03-21T18:11:22.919Z,12.82
2023-03-21T18:13:50.337Z,13.67
2023-03-21T18:16:22.846Z,14.13
2023-03-21T18:18:53.738Z,8.80
2023-03-21T18:21:22.749Z,9.88
2023-03-21T18:23:49.727Z,9.52
2023-03-21T18:26:21.205Z,9.73
2023-03-21T18:29:43.891Z,10.07
2023-03-21T18:31:37.628Z,10.27
2023-03-21T18:34:04.285Z,8.70
2023-03-21T18:36:30.980Z,11.25
2023-03-21T18:38:58.821Z,11.97
2023-03-21T18:41:25.951Z,10.82
2023-03-21T18:44:02.729Z,13.93
2023-03-21T18:46:36.749Z,10.35
2023-03-21T18:49:33.280Z,11.32
2023-03-21T18:51:51.766Z,8.10
2023-03-21T18:54:18.664Z,10.25
2023-03-21T18:57:31.792Z,10.35
2023-03-21T18:59:38.829Z,11.38
2023-03-21T19:02:06.532Z,13.05
2023-03-21T19:04:33.725Z,13.00
2023-03-21T19:07:00.408Z,13.15
2023-03-21T19:09:31.584Z,9.90
2023-03-21T19:11:58.494Z,11.57
2023-03-21T19:14:25.463Z,13.18
2023-03-21T19:19:39.326Z,12.50
2023-03-21T19:22:06.282Z,10.73
2023-03-21T19:24:32.959Z,15.60
2023-03-21T19:26:59.576Z,10.45
2023-03-21T19:29:26.460Z,14.03
2023-03-21T19:31:53.383Z,11.15
2023-03-21T19:34:20.809Z,13.15
2023-03-21T19:36:51.562Z,14.00
2023-03-21T19:39:22.003Z,13.70
2023-03-21T19:41:50.008Z,13.77
2023-03-21T19:44:17.557Z,20.38
2023-03-21T19:46:44.190Z,14.15
2023-03-21T19:49:11.167Z,16.80
2023-03-21T19:51:37.819Z,15.90
2023-03-21T19:54:05.552Z,15.70
2023-03-21T19:56:34.349Z,14.00
2023-03-21T19:59:02.756Z,16.60
2023-03-21T20:01:29.702Z,22.02
2023-03-21T20:03:56.388Z,16.77
2023-03-21T20:06:23.935Z,17.93
2023-03-21T20:11:38.567Z,12.88
2023-03-21T20:14:06.270Z,14.70
2023-03-21T20:16:35.779Z,16.35
2023-03-21T20:19:05.013Z,13.97
2023-03-21T20:21:41.124Z,13.52
2023-03-21T20:24:11.364Z,14.40
2023-03-21T20:26:38.292Z,12.52
2023-03-21T20:29:41.067Z,15.43
2023-03-21T20:31:53.113Z,16.20
2023-03-21T20:34:20.604Z,16.75
2023-03-21T20:36:48.182Z,17.73
2023-03-21T20:39:15.405Z,17.65
2023-03-21T20:41:42.131Z,17.10
2023-03-21T20:46:56.645Z,16.38
2023-03-21T20:49:24.325Z,17.02
2023-03-21T20:54:38.484Z,14.05
2023-03-21T20:57:05.385Z,15.93
2023-03-21T20:59:32.464Z,15.13
2023-03-21T21:01:59.924Z,18.73
2023-03-21T21:04:48.136Z,16.08
2023-03-21T21:07:18.737Z,11.55
2023-03-21T21:09:45.996Z,11.73
2023-03-21T21:12:14.893Z,11.35
2023-03-21T21:14:42.526Z,12.20
2023-03-21T21:17:40.685Z,14.85
2023-03-21T21:19:56.420Z,12.52
2023-03-21T21:22:23.085Z,13.00
2023-03-21T21:24:49.835Z,10.93
2023-03-21T21:27:16.451Z,13.85
2023-03-21T21:29:43.323Z,12.40
2023-03-21T21:32:11.092Z,12.00
2023-03-21T21:34:37.725Z,12.77
2023-03-21T21:37:04.359Z,14.23
2023-03-21T21:39:37.615Z,12.05
2023-03-21T21:42:05.117Z,13.82
2023-03-21T21:44:31.749Z,12.27
2023-03-21T21:46:58.611Z,12.13
2023-03-21T21:49:25.431Z,13.98
2023-03-21T21:51:52.004Z,12.65
2023-03-21T21:54:21.842Z,17.98
2023-03-21T21:56:48.595Z,13.18
2023-03-21T21:59:18.557Z,16.90
2023-03-21T22:01:46.585Z,18.00
2023-03-21T22:04:14.505Z,15.32
2023-03-21T22:06:43.118Z,15.00
2023-03-21T22:09:13.978Z,13.32
2023-03-21T22:11:40.857Z,15.63
2023-03-21T22:14:07.534Z,15.68
2023-03-21T22:16:34.242Z,12.93
2023-03-21T22:19:00.909Z,15.13
2023-03-21T22:21:27.548Z,16.10
2023-03-21T22:23:54.144Z,13.73
2023-03-21T22:26:20.991Z,14.27
2023-03-21T22:28:47.686Z,10.20
2023-03-21T22:31:16.991Z,15.45
2023-03-21T22:33:44.738Z,11.85
2023-03-21T22:36:12.011Z,11.33
2023-03-21T22:38:38.808Z,12.45
2023-03-21T22:41:06.324Z,11.02
2023-03-21T22:43:35.948Z,12.57
2023-03-21T22:46:04.899Z,13.93
2023-03-21T22:48:32.312Z,14.53
2023-03-21T22:51:00.004Z,11.60
2023-03-21T22:53:26.860Z,20.00
2023-03-21T22:55:53.736Z,10.50
2023-03-21T22:58:20.606Z,14.27
2023-03-21T23:00:47.703Z,14.57
2023-03-21T23:03:16.535Z,8.18
2023-03-21T23:05:44.241Z,17.17
2023-03-21T23:08:10.996Z,10.13
2023-03-21T23:10:43.546Z,12.05
2023-03-21T23:13:10.560Z,13.20
2023-03-21T23:15:38.561Z,13.00
2023-03-21T23:18:05.543Z,10.23
2023-03-21T23:20:32.186Z,10.18
2023-03-21T23:22:58.803Z,7.90
2023-03-21T23:25:25.426Z,8.90
2023-03-21T23:27:52.070Z,10.88
2023-03-21T23:30:18.925Z,10.82
2023-03-21T23:32:45.616Z,10.52
2023-03-21T23:35:12.384Z,8.82
2023-03-21T23:37:42.380Z,12.37
2023-03-21T23:40:10.309Z,8.88
2023-03-21T23:42:37.047Z,12.93
2023-03-21T23:45:04.424Z,9.20
2023-03-21T23:47:31.012Z,11.40
2023-03-21T23:49:57.898Z,8.90
2023-03-21T23:52:24.526Z,9.98
2023-03-21T23:54:51.250Z,12.90
2023-03-21T23:57:17.971Z,13.23
2023-03-21T23:59:46.844Z,12.73
